• Join FlightAware (Why Join?)
  • Login
  • US Flag 
01:09PM EDT


 

Airport Tracker/Info


-or-


 

Live Flight TrackerFlight Track Log ✈ N747DJ ✈ 03-May-2013 ✈ KOQN - KHYX

Flight Track Log - Related Links

Times and Time Zones

All times are in EDT time to prevent confusion due to time zone crossing. See the N747DJ flight status page for this flight to view local times or setup timezone preferences in your user account.

Time Position Orientation Groundspeed Altitude Reporting Facility
EDT Latitude Longitude Course Direction KTS MPH feet Rate Location/Type
05:02PM 40.1792 -75.9003 298° West 148 170 7,500  Level New York Center
05:03PM 40.1981 -75.9478 298° West 148 170 7,800 600 Climbing New York Center
05:04PM 40.2228 -76.0014 301° West 148 170 8,700 660 Climbing New York Center
05:05PM 40.2394 -76.0461 296° West 153 176 9,200 540 Climbing New York Center
05:06PM 40.2622 -76.0967 301° West 153 176 9,900 540 Climbing New York Center
05:07PM 40.2686 -76.2628 298° West  Level Estimated
05:07PM 40.2811 -76.1389 300° West 153 176 10,400  Level New York Center
05:08PM 40.3000 -76.1814 300° West 148 170 10,600  Climbing New York Center
05:09PM 40.3183 -76.2344 294° West 148 170 10,500  Descending New York Center
05:10PM 40.3572 -76.2947 310° West 154 177 10,600  Climbing New York Center
05:11PM 40.3867 -76.3353 314° West 159 183 10,500 -60 Descending New York Center
05:12PM 40.4175 -76.3894 307° West 172 198 10,500  Level New York Center
05:13PM 40.4361 -76.4375 297° West 172 198 10,600  Climbing New York Center
05:14PM 40.4603 -76.4967 298° West 167 192 10,600 -60 Level New York Center
05:15PM 40.4808 -76.5447 299° West 167 192 10,500 -60 Descending New York Center
05:16PM 40.5031 -76.6039 296° West 167 192 10,500  Level New York Center
05:17PM 40.5194 -76.6519 294° West 167 192 10,600  Climbing New York Center
05:18PM 40.5433 -76.7114 298° West 167 192 10,600 -60 Level New York Center
05:19PM 40.5686 -76.7517 310° West 162 186 10,500 -60 Descending New York Center
05:20PM 40.5997 -76.7928 315° West 162 186 10,500  Level New York Center
05:21PM 40.6300 -76.8528 304° West 162 186 10,500  Level New York Center
05:22PM 40.6483 -76.9036 295° West 169 194 10,500  Level New York Center
05:23PM 40.6744 -76.9608 301° West 169 194 10,500  Level New York Center
05:24PM 40.6967 -77.0147 299° West 164 189 10,500  Level New York Center
05:25PM 40.7169 -77.0658 298° West 164 189 10,500  Level New York Center
05:26PM 40.7411 -77.1175 302° West 164 189 10,500  Level New York Center
05:27PM 40.7675 -77.1719 303° West 164 189 10,500  Level New York Center
05:28PM 40.7894 -77.2289 297° West 170 196 10,500  Level New York Center
05:29PM 40.8139 -77.2778 303° West 165 190 10,500  Level New York Center
05:30PM 40.8400 -77.3325 302° West 165 190 10,500  Level New York Center
05:31PM 40.8625 -77.3786 303° West 170 196 10,500  Level New York Center
05:32PM 40.8822 -77.4353 295° West 170 196 10,600  Climbing New York Center
05:33PM 40.8997 -77.4919 292° West 165 190 10,600 -60 Level New York Center
05:34PM 40.9194 -77.5489 295° West 165 190 10,500  Descending New York Center
05:35PM 40.9433 -77.6033 300° West 165 190 10,600  Climbing New York Center
05:37PM 41.0053 -77.7353 302° West 173 199 10,500 -60 Descending Cleveland Center
05:38PM 41.0314 -77.7864 304° West 173 199 10,500 60 Level Cleveland Center
05:39PM 41.0517 -77.8406 296° West 167 192 10,700 60 Climbing Cleveland Center
05:40PM 41.0778 -77.8892 305° West 162 186 10,700  Level Cleveland Center
05:41PM 41.0975 -77.9325 301° West 162 186 10,700 -60 Level Cleveland Center
05:42PM 41.1261 -77.9947 301° West 162 186 10,600  Descending Cleveland Center
05:43PM 41.1461 -78.0489 296° West 162 186 10,700  Climbing Cleveland Center
05:44PM 41.1681 -78.1033 298° West 162 186 10,700  Level Cleveland Center
05:45PM 41.1922 -78.1547 302° West 162 186 10,700 -60 Level Cleveland Center
05:46PM 41.2164 -78.2119 299° West 162 186 10,600 -60 Descending Cleveland Center
05:47PM 41.2464 -78.2633 308° West 167 192 10,600 -60 Level Cleveland Center
05:48PM 41.2706 -78.3150 302° West 167 192 10,500  Descending Cleveland Center
05:49PM 41.2883 -78.3697 293° West 167 192 10,600  Climbing Cleveland Center
05:50PM 41.3164 -78.4239 305° West 167 192 10,600  Level Cleveland Center
05:51PM 41.3403 -78.4731 303° West 162 186 10,600  Level Cleveland Center
05:52PM 41.3642 -78.5275 300° West 167 192 10,600  Level Cleveland Center
05:53PM 41.3794 -78.5714 295° West 162 186 10,600  Level Cleveland Center
05:54PM 41.3994 -78.6317 294° West 157 181 10,600 -60 Level Cleveland Center
05:55PM 41.4231 -78.6836 301° West 157 181 10,500  Descending Cleveland Center
05:56PM 41.4469 -78.7356 302° West 157 181 10,600  Climbing Cleveland Center
05:57PM 41.4686 -78.7903 298° West 157 181 10,600  Level Cleveland Center
05:58PM 41.4881 -78.8422 297° West 157 181 10,600  Level Cleveland Center
05:59PM 41.5142 -78.9028 300° West 157 181 10,600  Level Cleveland Center
06:00PM 41.5400 -78.9547 304° West 157 181 10,600  Level Cleveland Center
06:01PM 41.5614 -79.0069 299° West 157 181 10,600  Level Cleveland Center
06:02PM 41.5831 -79.0647 297° West 157 181 10,600  Level Cleveland Center
06:03PM 41.6047 -79.1197 298° West 157 181 10,600  Level Cleveland Center
06:04PM 41.6242 -79.1747 295° West 162 186 10,600  Level Cleveland Center
06:05PM 41.6456 -79.2356 295° West 173 199 10,600  Level Cleveland Center
06:06PM 41.6711 -79.2850 305° West 173 199 10,600  Level Cleveland Center
06:07PM 41.6947 -79.3372 301° West 168 193 10,600  Level Cleveland Center
06:08PM 41.7161 -79.3953 296° West 168 193 10,600  Level Cleveland Center
06:09PM 41.7378 -79.4533 297° West 173 199 10,600  Level Cleveland Center
06:10PM 41.7631 -79.5058 303° West 173 199 10,600 -60 Level Cleveland Center
06:11PM 41.7867 -79.5583 301° West 179 206 10,500  Descending Cleveland Center
06:12PM 41.8119 -79.6136 302° West 179 206 10,600  Climbing Cleveland Center
06:13PM 41.8375 -79.6719 300° West 184 212 10,600  Level Cleveland Center
06:15PM 41.8626 -79.7365 298° West  Level FlightAware Approximate
06:22PM 42.0083 -80.1140 298° West  Level FlightAware Approximate
06:23PM 42.0290 -80.1681 297° West  Level FlightAware Approximate
06:24PM 42.0497 -80.2222 297° West  Level FlightAware Approximate
06:25PM 42.0707 -80.2760 300° West  Level FlightAware Approximate
06:26PM 42.0933 -80.3287 300° West  Level FlightAware Approximate
06:27PM 42.1160 -80.3815 300° West  Level FlightAware Approximate
06:28PM 42.1386 -80.4342 300° West  Level FlightAware Approximate
06:29PM 42.1611 -80.4870 300° West  Level FlightAware Approximate
06:30PM 42.1827 -80.5406 298° West  Level FlightAware Approximate
06:30PM 42.2308 -80.6000 298° West 180 207 10,600  Level Cleveland Center
06:31PM 42.2040 -80.5944 298° West  Level FlightAware Approximate
06:31PM 42.2558 -80.6533 302° West 180 207 10,600  Level Cleveland Center
06:32PM 42.2252 -80.6483 298° West  Level FlightAware Approximate
06:32PM 42.2767 -80.7094 297° West 148 170 10,600  Level Cleveland Center
06:33PM 42.2465 -80.7022 298° West  Level FlightAware Approximate
06:33PM 42.3017 -80.7683 300° West 163 188 10,600  Level Cleveland Center
06:34PM 42.2677 -80.7561 298° West  Level FlightAware Approximate
06:34PM 42.3286 -80.8247 303° West 178 205 10,800  Level Cleveland Center
06:35PM 42.3556 -80.8808 303° West 183 211 10,600 -120 Descending Cleveland Center
06:36PM 42.3847 -80.9375 305° West 189 217 10,600  Level Cleveland Center
06:37PM 42.4114 -80.9967 301° West 189 217 10,600  Level Cleveland Center
06:38PM 42.4300 -81.0586 292° West 184 212 10,600  Level Cleveland Center
06:39PM 42.4528 -81.1178 298° West 178 205 10,600  Level Cleveland Center
06:40PM 42.4711 -81.1714 295° West 178 205 10,600  Level Cleveland Center
06:41PM 42.4939 -81.2308 297° West 178 205 10,600  Level Cleveland Center
06:42PM 42.5122 -81.2903 293° West 172 198 10,600  Level Cleveland Center
06:43PM 42.5328 -81.3494 295° West 172 198 10,600  Level Cleveland Center
06:44PM 42.5511 -81.4061 294° West 172 198 10,600  Level Cleveland Center
06:45PM 42.5736 -81.4628 298° West 172 198 10,600  Level Cleveland Center
06:46PM 42.5961 -81.5139 301° West 172 198 10,600  Level Cleveland Center
06:47PM 42.6247 -81.5708 304° West 178 205 10,600  Level Cleveland Center
06:48PM 42.6514 -81.6333 300° West 178 205 10,600  Level Cleveland Center
06:49PM 42.6717 -81.6872 297° West 172 198 10,600  Level Cleveland Center
06:50PM 42.6878 -81.7497 289° West 167 192 10,600  Level Cleveland Center
06:51PM 42.7058 -81.8039 294° West 167 192 10,600  Level Cleveland Center
06:52PM 42.7303 -81.8636 299° West 174 200 10,600  Level Cleveland Center
06:53PM 42.7464 -81.9206 291° West 179 206 10,600  Level Cleveland Center
06:54PM 42.7622 -81.9803 290° West 173 199 10,600  Level Cleveland Center
06:55PM 42.7867 -82.0372 300° West 173 199 10,600  Level Cleveland Center
06:56PM 42.8047 -82.0944 293° West 173 199 10,600 -60 Level Cleveland Center
06:57PM 42.8225 -82.1514 293° West 173 199 10,500 -60 Descending Cleveland Center
06:58PM 42.8425 -82.2114 294° West 173 199 10,500  Level Cleveland Center
06:59PM 42.8628 -82.2658 297° West 173 199 10,600  Climbing Cleveland Center
07:00PM 42.8847 -82.3258 297° West 173 199 10,500  Descending Cleveland Center
07:01PM 42.9025 -82.3831 293° West 173 199 10,600  Climbing Cleveland Center
07:02PM 42.9225 -82.4403 296° West 173 199 10,500 -60 Descending Cleveland Center
07:03PM 42.9467 -82.4950 301° West 173 199 10,500  Level Cleveland Center
07:04PM 42.9706 -82.5522 300° West 168 193 10,600  Climbing Cleveland Center
07:05PM 42.9906 -82.6097 295° West 173 199 10,500  Descending Cleveland Center
07:06PM 43.0103 -82.6700 294° West 173 199 10,600 -120 Climbing Cleveland Center
07:07PM 43.0300 -82.7331 293° West 173 199 10,300 -300 Descending Cleveland Center
07:08PM 43.0519 -82.7822 301° West 178 205 10,000 -360 Descending Cleveland Center
07:09PM 43.0778 -82.8542 296° West 184 212 9,600 -480 Descending Cleveland Center
07:10PM 43.1056 -82.9233 299° West 184 212 9,100 -480 Descending Cleveland Center
07:11PM 43.1333 -82.9872 301° West 184 212 8,700 -480 Descending Cleveland Center
07:12PM 43.1592 -83.0450 302° West 184 212 8,200 -480 Descending Cleveland Center
07:13PM 43.1808 -83.1058 296° West 178 205 7,800 -360 Descending Cleveland Center
07:14PM 43.2044 -83.1694 297° West 178 205 7,500 -360 Descending Cleveland Center
07:15PM 43.2258 -83.2300 296° West 178 205 7,100 -420 Descending Cleveland Center
07:16PM 43.2456 -83.2881 295° West 178 205 6,700 -480 Descending Cleveland Center
07:17PM 43.2711 -83.3519 299° West 178 205 6,200 -480 Descending Cleveland Center
07:18PM 43.2886 -83.4039 295° West 184 212 5,800 -480 Descending Cleveland Center
07:19PM 43.3136 -83.4822 294° West 178 205 5,300 -540 Descending Cleveland Center
07:20PM 43.3372 -83.5403 299° West 188 216 4,800 -480 Descending Cleveland Center
07:21PM 43.3606 -83.6014 298° West 181 208 4,400 -360 Descending Cleveland Center
07:22PM 43.3797 -83.6681 292° West 176 203 4,100 -300 Descending Cleveland Center
07:23PM 43.4011 -83.7264 297° West 176 203 3,900 -240 Descending Cleveland Center
07:24PM 43.4164 -83.7728 294° West 176 203 3,700 -240 Descending Cleveland Center
07:26PM 43.4333 -83.8500 313° West  Level FlightAware Approximate
07:33PM 43.4334 -83.8623 313° West  Level Estimated
07:34PM 43.4334 -83.8623 313° West  Level Estimated
07:35PM 43.4334 -83.8623 313° West  Level Estimated
07:36PM 43.4334 -83.8623 313° West  Level Estimated
07:37PM 43.4334 -83.8623 313° West  Level Estimated